Victorious Ace — 3FTR4 — position and weather

sailwx.info

Track history (hours):
 
Tides and Currents Weather Stations Pressure Air Temp Water Temp Dewpoint Dewpoint Depression Visibility Wind Speed Wind Dir Waves Ship Positions

Victorious Ace

Last reported at 2018-Jan-11 10:00 UTC. Time now 2018-Jan-18 14:15 UTC.
Position S 29°09' E 032°09'.

Length 200 m; draft 8.3 m.

Type: Ship. MMSI: 356541000.

Date/timePositionNaut miles runAvg speedWind from/ knotsBaromVisibWave heightAir tempDewpointWater temp
2018-Jan-11 10:00S 29°09' E 032°09'1014.7
2018-Jan-11 09:18S 29°17' E 032°02'514.9
2018-Jan-11 08:58S 29°21' E 031°58'714.6
2018-Jan-11 08:30S 29°26' E 031°53'714.4
2018-Jan-11 08:00S 29°31' E 031°47'713.8
2018-Jan-11 07:30S 29°35' E 031°41'713.3
2018-Jan-11 07:01S 29°39' E 031°35'917.7
2018-Jan-11 06:31S 29°47' E 031°29'816.0
2018-Jan-11 06:00S 29°53' E 031°24'713.4
2018-Jan-11 05:30S 29°59' E 031°19'713.2
2018-Jan-11 05:00S 30°03' E 031°14'613.0
2018-Jan-11 04:30S 30°09' E 031°10'612.7
2018-Jan-11 04:00S 30°14' E 031°06'612.7
2018-Jan-11 03:30S 30°20' E 031°02'612.3
2018-Jan-11 03:00S 30°24' E 030°57'  
Track history (hours):
 
Tides and Currents Weather Stations Pressure Air Temp Water Temp Dewpoint Dewpoint Depression Visibility Wind Speed Wind Dir Waves Ship Positions

Victorious Ace

Last reported at 2018-Jan-11 10:00 UTC. Time now 2018-Jan-18 14:15 UTC.
Position S 29°09' E 032°09'.

Length 200 m; draft 8.3 m.

Type: Ship. MMSI: 356541000.

Date/timePositionNaut miles runAvg speedWind from/ knotsBaromVisibWave heightAir tempDewpointWater temp
2018-Jan-11 10:00S 29°09' E 032°09'1014.7
2018-Jan-11 09:18S 29°17' E 032°02'514.9
2018-Jan-11 08:58S 29°21' E 031°58'714.6
2018-Jan-11 08:30S 29°26' E 031°53'714.4
2018-Jan-11 08:00S 29°31' E 031°47'713.8
2018-Jan-11 07:30S 29°35' E 031°41'713.3
2018-Jan-11 07:01S 29°39' E 031°35'917.7
2018-Jan-11 06:31S 29°47' E 031°29'816.0
2018-Jan-11 06:00S 29°53' E 031°24'713.4
2018-Jan-11 05:30S 29°59' E 031°19'713.2
2018-Jan-11 05:00S 30°03' E 031°14'613.0
2018-Jan-11 04:30S 30°09' E 031°10'612.7
2018-Jan-11 04:00S 30°14' E 031°06'612.7
2018-Jan-11 03:30S 30°20' E 031°02'612.3
2018-Jan-11 03:00S 30°24' E 030°57'  

Dump ship's entire track history